createdAt,value
2016-11-04T00:00:07.182Z,0
2016-11-04T00:01:06.790Z,0
2016-11-04T00:02:06.809Z,0
2016-11-04T00:03:07.198Z,0
2016-11-04T00:04:06.850Z,0
2016-11-04T00:05:07.179Z,0
2016-11-04T00:06:07.180Z,0
2016-11-04T00:07:07.201Z,0
2016-11-04T00:08:06.921Z,0
2016-11-04T00:09:07.230Z,0
2016-11-04T00:10:07.254Z,0
2016-11-04T00:11:07.282Z,0
2016-11-04T00:12:07.272Z,0
2016-11-04T00:13:07.419Z,0
2016-11-04T00:14:07.123Z,0
2016-11-04T00:15:07.393Z,0
2016-11-04T00:16:07.428Z,0
2016-11-04T00:17:07.420Z,0
2016-11-04T00:18:07.427Z,0
2016-11-04T00:19:07.395Z,0
2016-11-04T00:20:07.480Z,0
2016-11-04T00:21:07.429Z,0
2016-11-04T00:22:07.456Z,0
2016-11-04T00:23:07.479Z,0
2016-11-04T00:24:07.479Z,0
2016-11-04T00:25:07.508Z,0
2016-11-04T00:26:07.235Z,0
2016-11-04T00:27:07.603Z,0
2016-11-04T00:28:07.244Z,0
2016-11-04T00:29:07.636Z,0
2016-11-04T00:30:07.590Z,0
2016-11-04T00:31:07.611Z,0
2016-11-04T00:32:07.613Z,0
2016-11-04T00:33:07.664Z,0
2016-11-04T00:34:07.656Z,0
2016-11-04T00:35:07.662Z,0
2016-11-04T00:36:07.684Z,0
2016-11-04T00:37:07.714Z,0
2016-11-04T00:38:07.727Z,0
2016-11-04T00:39:07.435Z,0
2016-11-04T00:40:07.737Z,0
2016-11-04T00:41:07.785Z,0
2016-11-04T00:42:07.923Z,0
2016-11-04T00:43:07.908Z,0
2016-11-04T00:44:07.819Z,0
2016-11-04T00:45:07.849Z,0
2016-11-04T00:46:07.853Z,0
2016-11-04T00:47:07.886Z,0
2016-11-04T00:48:07.945Z,0
2016-11-04T00:49:07.918Z,0
2016-11-04T00:50:07.622Z,0
2016-11-04T00:51:07.931Z,0
2016-11-04T00:52:07.967Z,0
2016-11-04T00:53:07.990Z,0
2016-11-04T00:54:08.006Z,0
2016-11-04T00:55:08.018Z,0
2016-11-04T00:56:08.107Z,0
2016-11-04T00:57:08.045Z,0
2016-11-04T00:58:08.054Z,0
2016-11-04T00:59:08.071Z,0
2016-11-04T01:00:08.100Z,0
2016-11-04T01:01:07.786Z,0
2016-11-04T01:02:07.813Z,0
2016-11-04T01:03:08.200Z,0
2016-11-04T01:04:07.935Z,0
2016-11-04T01:05:08.186Z,0
2016-11-04T01:06:07.939Z,0
2016-11-04T01:07:07.920Z,0
2016-11-04T01:08:08.223Z,0
2016-11-04T01:09:08.333Z,0
2016-11-04T01:10:07.982Z,0
2016-11-04T01:11:08.309Z,0
2016-11-04T01:12:08.366Z,0
2016-11-04T01:13:07.999Z,0
2016-11-04T01:14:08.352Z,0
2016-11-04T01:15:08.036Z,0
2016-11-04T01:16:08.365Z,0
2016-11-04T01:17:08.376Z,0
2016-11-04T01:18:08.386Z,0
2016-11-04T01:19:08.408Z,0
2016-11-04T01:20:08.433Z,0
2016-11-04T01:21:08.450Z,0
2016-11-04T01:22:08.474Z,0
2016-11-04T01:23:08.149Z,0
2016-11-04T01:24:08.496Z,0
2016-11-04T01:25:08.559Z,0
2016-11-04T01:26:08.568Z,0
2016-11-04T01:27:08.623Z,0
2016-11-04T01:28:08.559Z,0
2016-11-04T01:29:08.400Z,0
2016-11-04T01:30:08.587Z,0
2016-11-04T01:31:08.603Z,0
2016-11-04T01:32:08.644Z,0
2016-11-04T01:33:08.653Z,0
2016-11-04T01:34:08.673Z,0
2016-11-04T01:35:08.730Z,0
2016-11-04T01:36:08.798Z,0
2016-11-04T01:37:08.828Z,0
2016-11-04T01:38:08.424Z,0
2016-11-04T01:39:08.827Z,0
2016-11-04T01:40:08.861Z,0
2016-11-04T01:41:08.459Z,0
2016-11-04T01:42:08.502Z,0
2016-11-04T01:43:08.844Z,0
2016-11-04T01:44:08.564Z,0
2016-11-04T01:45:08.826Z,0
2016-11-04T01:46:08.866Z,0
2016-11-04T01:47:08.863Z,0
2016-11-04T01:48:08.892Z,0
2016-11-04T01:49:08.588Z,0
2016-11-04T01:50:09.050Z,0
2016-11-04T01:51:08.631Z,0
2016-11-04T01:52:08.737Z,0
2016-11-04T01:53:08.751Z,0
2016-11-04T01:54:09.039Z,0
2016-11-04T01:55:09.023Z,0
2016-11-04T01:56:09.082Z,0
2016-11-04T01:57:08.784Z,0
2016-11-04T01:58:09.073Z,0
2016-11-04T01:59:09.181Z,0
2016-11-04T02:00:09.082Z,0
2016-11-04T02:01:09.116Z,0
2016-11-04T02:02:09.122Z,0
2016-11-04T02:03:09.161Z,0
2016-11-04T02:04:09.149Z,0
2016-11-04T02:05:08.930Z,0
2016-11-04T02:06:08.612Z,0
2016-11-04T02:07:08.949Z,0
2016-11-04T02:08:09.221Z,0
2016-11-04T02:09:09.284Z,0
2016-11-04T02:10:09.261Z,0
2016-11-04T02:11:09.295Z,0
2016-11-04T02:12:09.280Z,0
2016-11-04T02:13:09.298Z,0
2016-11-04T02:14:09.319Z,0
2016-11-04T02:15:09.351Z,0
2016-11-04T02:16:09.095Z,0
2016-11-04T02:17:09.063Z,0
2016-11-04T02:18:09.478Z,0
2016-11-04T02:19:09.410Z,0
2016-11-04T02:20:09.516Z,0
2016-11-04T02:21:09.126Z,0
2016-11-04T02:22:09.457Z,0
2016-11-04T02:23:09.170Z,0
2016-11-04T02:24:09.485Z,0
2016-11-04T02:25:09.509Z,0
2016-11-04T02:26:09.203Z,0
2016-11-04T02:27:09.551Z,0
2016-11-04T02:28:09.581Z,0
2016-11-04T02:29:09.262Z,0
2016-11-04T02:30:09.718Z,0
2016-11-04T02:31:09.281Z,0
2016-11-04T02:32:09.628Z,0
2016-11-04T02:33:09.357Z,0
2016-11-04T02:34:09.706Z,0
2016-11-04T02:35:09.043Z,0
2016-11-04T02:36:09.729Z,0
2016-11-04T02:37:09.712Z,0
2016-11-04T02:38:09.718Z,0
2016-11-04T02:39:09.732Z,0
2016-11-04T02:40:09.750Z,0
2016-11-04T02:41:09.755Z,0
2016-11-04T02:42:09.767Z,0
2016-11-04T02:43:09.804Z,0
2016-11-04T02:44:09.942Z,0
2016-11-04T02:45:09.814Z,0
2016-11-04T02:46:09.849Z,0
2016-11-04T02:47:09.931Z,0
2016-11-04T02:48:09.556Z,0
2016-11-04T02:49:09.906Z,0
2016-11-04T02:50:09.914Z,0
2016-11-04T02:51:09.920Z,0
2016-11-04T02:52:09.934Z,0
2016-11-04T02:53:09.945Z,0
2016-11-04T02:54:09.972Z,0
2016-11-04T02:55:09.989Z,0
2016-11-04T02:56:09.714Z,0
2016-11-04T02:57:10.018Z,0
2016-11-04T02:58:10.019Z,0
2016-11-04T02:59:10.058Z,0
2016-11-04T03:00:10.070Z,0
2016-11-04T03:01:09.770Z,0
2016-11-04T03:02:10.118Z,0
2016-11-04T03:03:09.807Z,0
2016-11-04T03:04:10.133Z,0
2016-11-04T03:05:10.162Z,0
2016-11-04T03:06:10.164Z,0
2016-11-04T03:07:09.898Z,0
2016-11-04T03:08:09.896Z,0
2016-11-04T03:09:10.229Z,0
2016-11-04T03:10:09.915Z,0
2016-11-04T03:11:10.333Z,0
2016-11-04T03:12:10.271Z,0
2016-11-04T03:13:10.369Z,0
2016-11-04T03:14:10.413Z,0
2016-11-04T03:15:10.037Z,0
2016-11-04T03:16:10.325Z,0
2016-11-04T03:17:10.349Z,0
2016-11-04T03:18:10.366Z,0
2016-11-04T03:19:10.378Z,0
2016-11-04T03:20:10.394Z,0
2016-11-04T03:21:10.407Z,0
2016-11-04T03:22:10.408Z,0
2016-11-04T03:23:10.460Z,0
2016-11-04T03:24:10.180Z,0
2016-11-04T03:25:10.487Z,0
2016-11-04T03:26:10.196Z,0
2016-11-04T03:27:10.498Z,0
2016-11-04T03:28:10.615Z,0
2016-11-04T03:29:10.216Z,0
2016-11-04T03:30:10.551Z,0
2016-11-04T03:31:10.642Z,0
2016-11-04T03:32:10.589Z,0
2016-11-04T03:33:10.288Z,0
2016-11-04T03:34:10.617Z,0
2016-11-04T03:35:10.628Z,0
2016-11-04T03:36:10.658Z,0
2016-11-04T03:37:10.647Z,0
2016-11-04T03:38:10.682Z,0
2016-11-04T03:39:10.423Z,0
2016-11-04T03:40:10.727Z,0
2016-11-04T03:41:10.777Z,0
2016-11-04T03:42:10.804Z,0
2016-11-04T03:43:10.809Z,0
2016-11-04T03:44:10.819Z,0
2016-11-04T03:45:10.783Z,0
2016-11-04T03:46:10.804Z,0
2016-11-04T03:47:10.833Z,0
2016-11-04T03:48:10.850Z,0
2016-11-04T03:49:10.865Z,0
2016-11-04T03:50:10.658Z,0
2016-11-04T03:51:10.898Z,0
2016-11-04T03:52:10.929Z,0
2016-11-04T03:53:10.917Z,0
2016-11-04T03:54:10.957Z,0
2016-11-04T03:55:10.946Z,0
2016-11-04T03:56:11.018Z,0
2016-11-04T03:57:11.037Z,0
2016-11-04T03:58:11.010Z,0
2016-11-04T03:59:11.131Z,0
2016-11-04T04:00:10.730Z,0
2016-11-04T04:01:11.100Z,0
2016-11-04T04:02:11.065Z,0
2016-11-04T04:03:10.901Z,0
2016-11-04T04:04:11.130Z,0
2016-11-04T04:05:11.114Z,0
2016-11-04T04:06:11.141Z,0
2016-11-04T04:07:11.180Z,0
2016-11-04T04:08:11.308Z,0
2016-11-04T04:09:11.185Z,0
2016-11-04T04:10:11.314Z,0
2016-11-04T04:11:11.216Z,0
2016-11-04T04:12:10.969Z,0
2016-11-04T04:13:11.248Z,0
2016-11-04T04:14:11.322Z,0
2016-11-04T04:15:10.783Z,0
2016-11-04T04:16:11.293Z,0
2016-11-04T04:17:11.315Z,0
2016-11-04T04:18:11.331Z,0
2016-11-04T04:19:11.343Z,0
2016-11-04T04:20:11.376Z,0
2016-11-04T04:21:11.509Z,0
2016-11-04T04:22:11.476Z,0
2016-11-04T04:23:11.104Z,0
2016-11-04T04:24:11.210Z,0
2016-11-04T04:25:11.125Z,0
2016-11-04T04:26:11.514Z,0
2016-11-04T04:27:11.501Z,0
2016-11-04T04:28:11.496Z,0
2016-11-04T04:29:11.525Z,0
2016-11-04T04:30:11.524Z,0
2016-11-04T04:31:11.549Z,0
2016-11-04T04:32:11.556Z,0
2016-11-04T04:33:11.597Z,0
2016-11-04T04:34:11.585Z,0
2016-11-04T04:35:11.628Z,0
2016-11-04T04:36:11.634Z,0
2016-11-04T04:37:11.647Z,0
2016-11-04T04:38:11.394Z,0
2016-11-04T04:39:11.697Z,0
2016-11-04T04:40:11.724Z,0
2016-11-04T04:41:11.398Z,0
2016-11-04T04:42:11.412Z,0
2016-11-04T04:43:11.765Z,0
2016-11-04T04:44:11.742Z,0
2016-11-04T04:45:11.457Z,0
2016-11-04T04:46:11.548Z,0
2016-11-04T04:47:11.508Z,0
2016-11-04T04:48:11.835Z,0
2016-11-04T04:49:11.859Z,0
2016-11-04T04:50:11.948Z,0
2016-11-04T04:51:11.887Z,0
2016-11-04T04:52:11.687Z,0
2016-11-04T04:53:11.914Z,0
2016-11-04T04:54:11.916Z,0
2016-11-04T04:55:11.961Z,0
2016-11-04T04:56:11.957Z,0
2016-11-04T04:57:11.968Z,0
2016-11-04T04:58:11.979Z,0
2016-11-04T04:59:12.025Z,0
2016-11-04T05:00:12.014Z,0
2016-11-04T05:01:12.048Z,0
2016-11-04T05:02:11.737Z,0
2016-11-04T05:03:11.797Z,0
2016-11-04T05:04:12.100Z,0
2016-11-04T05:05:11.819Z,0
2016-11-04T05:06:12.120Z,0
2016-11-04T05:07:12.130Z,0
2016-11-04T05:08:11.856Z,0
2016-11-04T05:09:12.187Z,0
2016-11-04T05:10:11.893Z,0
2016-11-04T05:11:12.213Z,0
2016-11-04T05:12:12.236Z,0
2016-11-04T05:13:12.245Z,0
2016-11-04T05:14:12.269Z,0
2016-11-04T05:15:12.333Z,0
2016-11-04T05:16:12.378Z,0
2016-11-04T05:17:11.997Z,0
2016-11-04T05:18:12.023Z,0
2016-11-04T05:19:12.362Z,0
2016-11-04T05:20:12.050Z,0
2016-11-04T05:21:12.599Z,0
2016-11-04T05:22:12.340Z,0
2016-11-04T05:23:12.607Z,0
2016-11-04T05:24:12.695Z,0
2016-11-04T05:25:12.777Z,0
2016-11-04T05:26:12.622Z,0
2016-11-04T05:27:12.166Z,0
2016-11-04T05:28:12.738Z,0
2016-11-04T05:29:12.508Z,0
2016-11-04T05:30:12.234Z,0
2016-11-04T05:31:12.275Z,0
2016-11-04T05:32:12.747Z,0
2016-11-04T05:33:12.886Z,0
2016-11-04T05:34:12.716Z,0
2016-11-04T05:35:12.942Z,0
2016-11-04T05:36:12.311Z,0
2016-11-04T05:37:12.339Z,0
2016-11-04T05:38:12.731Z,0
2016-11-04T05:39:12.840Z,0
2016-11-04T05:40:12.806Z,0
2016-11-04T05:41:12.445Z,0
2016-11-04T05:42:12.772Z,0
2016-11-04T05:43:12.865Z,0
2016-11-04T05:44:12.467Z,0
2016-11-04T05:45:12.840Z,0
2016-11-04T05:46:13.001Z,0
2016-11-04T05:47:12.843Z,0
2016-11-04T05:48:13.040Z,0
2016-11-04T05:49:12.550Z,0
2016-11-04T05:50:13.062Z,0
2016-11-04T05:51:12.891Z,0
2016-11-04T05:52:12.717Z,0
2016-11-04T05:53:12.909Z,0
2016-11-04T05:54:12.688Z,0
2016-11-04T05:55:12.619Z,40
2016-11-04T05:56:12.996Z,44
2016-11-04T05:57:13.105Z,40
2016-11-04T05:58:13.259Z,4
2016-11-04T05:59:13.079Z,4
2016-11-04T06:00:13.060Z,0
2016-11-04T06:01:13.106Z,4
2016-11-04T06:02:12.773Z,4
2016-11-04T06:03:13.086Z,4
2016-11-04T06:04:13.188Z,8
2016-11-04T06:05:13.082Z,8
2016-11-04T06:06:13.146Z,8
2016-11-04T06:07:13.151Z,12
2016-11-04T06:08:13.183Z,12
2016-11-04T06:09:13.058Z,16
2016-11-04T06:10:13.353Z,16
2016-11-04T06:11:13.268Z,16
2016-11-04T06:12:13.007Z,24
2016-11-04T06:13:13.356Z,24
2016-11-04T06:14:13.311Z,32
2016-11-04T06:15:12.831Z,36
2016-11-04T06:16:13.305Z,36
2016-11-04T06:17:13.362Z,40
2016-11-04T06:18:13.372Z,48
2016-11-04T06:19:13.350Z,56
2016-11-04T06:20:13.381Z,56
2016-11-04T06:21:13.399Z,64
2016-11-04T06:22:13.559Z,68
2016-11-04T06:23:13.409Z,76
2016-11-04T06:24:13.434Z,84
2016-11-04T06:25:12.872Z,92
2016-11-04T06:26:13.168Z,96
2016-11-04T06:27:13.587Z,96
2016-11-04T06:28:13.503Z,104
2016-11-04T06:29:13.621Z,108
2016-11-04T06:30:13.556Z,112
2016-11-04T06:31:13.564Z,120
2016-11-04T06:32:13.330Z,132
2016-11-04T06:33:13.589Z,136
2016-11-04T06:34:13.610Z,140
2016-11-04T06:35:13.632Z,136
2016-11-04T06:36:13.391Z,136
2016-11-04T06:37:13.360Z,128
2016-11-04T06:38:13.495Z,124
2016-11-04T06:39:13.682Z,116
2016-11-04T06:40:13.817Z,132
2016-11-04T06:41:13.728Z,140
2016-11-04T06:42:13.737Z,144
2016-11-04T06:43:13.437Z,140
2016-11-04T06:44:13.759Z,148
2016-11-04T06:45:13.792Z,160
2016-11-04T06:46:13.810Z,160
2016-11-04T06:47:13.549Z,168
2016-11-04T06:48:13.520Z,184
2016-11-04T06:49:13.853Z,248
2016-11-04T06:50:13.553Z,336
2016-11-04T06:51:13.590Z,424
2016-11-04T06:52:13.898Z,512
2016-11-04T06:53:13.970Z,576
2016-11-04T06:54:13.927Z,616
2016-11-04T06:55:13.997Z,684
2016-11-04T06:56:13.719Z,752
2016-11-04T06:57:13.959Z,792
2016-11-04T06:58:14.006Z,796
2016-11-04T06:59:13.391Z,760
2016-11-04T07:00:14.039Z,740
2016-11-04T07:01:13.735Z,716
2016-11-04T07:02:13.462Z,736
2016-11-04T07:03:13.782Z,772
2016-11-04T07:04:13.799Z,804
2016-11-04T07:05:14.185Z,884
2016-11-04T07:06:14.126Z,984
2016-11-04T07:07:14.245Z,1112
2016-11-04T07:08:14.263Z,1272
2016-11-04T07:09:14.286Z,1380
2016-11-04T07:10:14.250Z,1416
2016-11-04T07:11:14.220Z,1364
2016-11-04T07:12:14.228Z,1200
2016-11-04T07:13:14.279Z,1032
2016-11-04T07:14:14.266Z,936
2016-11-04T07:15:14.275Z,916
2016-11-04T07:16:13.982Z,920
2016-11-04T07:17:14.452Z,936
2016-11-04T07:18:14.058Z,928
2016-11-04T07:19:14.441Z,924
2016-11-04T07:20:14.453Z,928
2016-11-04T07:21:14.498Z,948
2016-11-04T07:22:14.091Z,1004
2016-11-04T07:23:14.421Z,1096
2016-11-04T07:24:14.138Z,1172
2016-11-04T07:25:14.451Z,1228
2016-11-04T07:26:14.177Z,1252
2016-11-04T07:27:14.491Z,1296
2016-11-04T07:28:14.209Z,1408
2016-11-04T07:29:14.215Z,1540
2016-11-04T07:30:14.596Z,1604
2016-11-04T07:31:14.594Z,1624
2016-11-04T07:32:14.668Z,1608
2016-11-04T07:33:14.285Z,1588
2016-11-04T07:34:14.599Z,1596
2016-11-04T07:35:14.328Z,1672
2016-11-04T07:36:14.337Z,1772
2016-11-04T07:37:14.347Z,1836
2016-11-04T07:38:14.403Z,1848
2016-11-04T07:39:14.715Z,1800
2016-11-04T07:40:14.731Z,1740
2016-11-04T07:41:14.737Z,1704
2016-11-04T07:42:14.751Z,1684
2016-11-04T07:43:14.787Z,1668
2016-11-04T07:44:14.282Z,1676
2016-11-04T07:45:14.478Z,1732
2016-11-04T07:46:14.584Z,1808
2016-11-04T07:47:14.899Z,1852
2016-11-04T07:48:14.906Z,1840
2016-11-04T07:49:14.279Z,1792
2016-11-04T07:50:14.890Z,1752
2016-11-04T07:51:14.992Z,1756
2016-11-04T07:52:14.936Z,1768
2016-11-04T07:53:14.933Z,1716
2016-11-04T07:54:14.736Z,1640
2016-11-04T07:55:14.969Z,1600
2016-11-04T07:56:14.787Z,1576
2016-11-04T07:57:14.698Z,1540
2016-11-04T07:58:15.019Z,1552
2016-11-04T07:59:14.814Z,1664
2016-11-04T08:00:14.744Z,1820
2016-11-04T08:01:14.904Z,1980
2016-11-04T08:02:15.117Z,2148
2016-11-04T08:03:15.117Z,2304
2016-11-04T08:04:14.836Z,2420
2016-11-04T08:05:15.137Z,2508
2016-11-04T08:06:14.911Z,2584
2016-11-04T08:07:15.176Z,2652
2016-11-04T08:08:15.203Z,2748
2016-11-04T08:09:14.885Z,2844
2016-11-04T08:10:15.227Z,2916
2016-11-04T08:11:15.242Z,2932
2016-11-04T08:12:15.085Z,2920
2016-11-04T08:13:15.353Z,2856
2016-11-04T08:14:15.067Z,2796
2016-11-04T08:15:15.309Z,2848
2016-11-04T08:16:15.374Z,3060
2016-11-04T08:17:15.342Z,3348
2016-11-04T08:18:15.478Z,3636
2016-11-04T08:19:15.396Z,3860
2016-11-04T08:20:15.382Z,3928
2016-11-04T08:21:15.107Z,3856
2016-11-04T08:22:15.243Z,3620
2016-11-04T08:23:15.494Z,3360
2016-11-04T08:24:15.497Z,3156
2016-11-04T08:25:15.504Z,3024
2016-11-04T08:26:15.270Z,2932
2016-11-04T08:27:15.287Z,2852
2016-11-04T08:28:15.552Z,2736
2016-11-04T08:29:15.566Z,2656
2016-11-04T08:30:15.264Z,2640
2016-11-04T08:31:15.643Z,2628
2016-11-04T08:32:15.302Z,2712
2016-11-04T08:33:15.336Z,2748
2016-11-04T08:34:15.648Z,2800
2016-11-04T08:35:15.661Z,2852
2016-11-04T08:36:15.677Z,2824
2016-11-04T08:37:15.700Z,2712
2016-11-04T08:38:15.401Z,2628
2016-11-04T08:39:15.526Z,2536
2016-11-04T08:40:15.771Z,2432
2016-11-04T08:41:15.248Z,2312
2016-11-04T08:42:15.205Z,2212
2016-11-04T08:43:15.915Z,2184
2016-11-04T08:44:15.495Z,2160
2016-11-04T08:45:15.846Z,2096
2016-11-04T08:46:15.850Z,2028
2016-11-04T08:47:15.566Z,2020
2016-11-04T08:48:15.937Z,2052
2016-11-04T08:49:15.610Z,2092
2016-11-04T08:50:15.934Z,2148
2016-11-04T08:51:16.090Z,2200
2016-11-04T08:52:15.757Z,2240
2016-11-04T08:53:15.992Z,2304
2016-11-04T08:54:16.096Z,2368
2016-11-04T08:55:16.152Z,2448
2016-11-04T08:56:16.069Z,2548
2016-11-04T08:57:15.762Z,2620
2016-11-04T08:58:15.815Z,2652
2016-11-04T08:59:16.079Z,2680
2016-11-04T09:00:16.111Z,2700
2016-11-04T09:01:15.808Z,2720
2016-11-04T09:02:16.151Z,2740
2016-11-04T09:03:16.161Z,2768
2016-11-04T09:04:16.187Z,2736
2016-11-04T09:05:16.189Z,2660
2016-11-04T09:06:16.476Z,2576
2016-11-04T09:07:16.466Z,2528
2016-11-04T09:08:16.486Z,2536
2016-11-04T09:09:15.383Z,2584
2016-11-04T09:10:16.225Z,2664
2016-11-04T09:11:16.244Z,2796
2016-11-04T09:12:16.518Z,2972
2016-11-04T09:13:16.478Z,3188
2016-11-04T09:14:16.057Z,3412
2016-11-04T09:15:16.208Z,3672
2016-11-04T09:16:16.503Z,3992
2016-11-04T09:17:16.606Z,4352
2016-11-04T09:18:16.207Z,4672
2016-11-04T09:19:16.588Z,4976
2016-11-04T09:20:16.539Z,5244
2016-11-04T09:21:16.158Z,5492
2016-11-04T09:22:16.539Z,5672
2016-11-04T09:23:16.217Z,5848
2016-11-04T09:24:16.233Z,6148
2016-11-04T09:25:16.272Z,6460
2016-11-04T09:26:16.289Z,6676
2016-11-04T09:27:15.950Z,6680
2016-11-04T09:28:16.611Z,6648
2016-11-04T09:29:16.309Z,6820
2016-11-04T09:30:16.280Z,6956
2016-11-04T09:31:16.675Z,7060
2016-11-04T09:32:16.576Z,7316
2016-11-04T09:33:16.799Z,7428
2016-11-04T09:34:16.553Z,7464
2016-11-04T09:35:16.417Z,7432
2016-11-04T09:36:16.588Z,7440
2016-11-04T09:37:16.618Z,7388
2016-11-04T09:38:16.484Z,7312
2016-11-04T09:39:16.546Z,7196
2016-11-04T09:40:16.813Z,7324
2016-11-04T09:41:16.224Z,7520
2016-11-04T09:42:16.863Z,7712
2016-11-04T09:43:16.921Z,7484
2016-11-04T09:44:17.028Z,7124
2016-11-04T09:45:16.723Z,6884
2016-11-04T09:46:16.983Z,6724
2016-11-04T09:47:16.977Z,6284
2016-11-04T09:48:17.090Z,5940
2016-11-04T09:49:16.062Z,5600
2016-11-04T09:50:16.687Z,5280
2016-11-04T09:51:16.781Z,5024
2016-11-04T09:52:17.042Z,4816
2016-11-04T09:53:17.101Z,4716
2016-11-04T09:54:17.108Z,4808
2016-11-04T09:55:17.086Z,4840
2016-11-04T09:56:17.098Z,4736
2016-11-04T09:57:17.138Z,4576
2016-11-04T09:58:17.275Z,4544
2016-11-04T09:59:17.179Z,4636
2016-11-04T10:00:16.959Z,4660
2016-11-04T10:01:17.210Z,4540
2016-11-04T10:02:17.278Z,4448
2016-11-04T10:03:16.999Z,4420
2016-11-04T10:04:17.260Z,4480
2016-11-04T10:05:17.293Z,4704
2016-11-04T10:06:17.299Z,4940
2016-11-04T10:07:17.055Z,5084
2016-11-04T10:08:17.057Z,5196
2016-11-04T10:09:17.350Z,5224
2016-11-04T10:10:17.249Z,5180
2016-11-04T10:11:17.199Z,5088
2016-11-04T10:12:17.544Z,4932
2016-11-04T10:13:17.128Z,4952
2016-11-04T10:14:17.557Z,5212
2016-11-04T10:15:17.488Z,5424
2016-11-04T10:16:17.540Z,5368
2016-11-04T10:17:17.581Z,5040
2016-11-04T10:18:17.223Z,4776
2016-11-04T10:19:17.574Z,4680
2016-11-04T10:20:17.570Z,4628
2016-11-04T10:21:17.299Z,4672
2016-11-04T10:22:17.621Z,4848
2016-11-04T10:23:17.762Z,4896
2016-11-04T10:24:17.690Z,4844
2016-11-04T10:25:17.691Z,4752
2016-11-04T10:26:17.700Z,4644
2016-11-04T10:27:17.752Z,4632
2016-11-04T10:28:17.840Z,4700
2016-11-04T10:29:17.739Z,4764
2016-11-04T10:30:16.849Z,4840
2016-11-04T10:31:17.814Z,4936
2016-11-04T10:32:17.492Z,4988
2016-11-04T10:33:17.504Z,5016
2016-11-04T10:34:17.829Z,5008
2016-11-04T10:35:17.886Z,5028
2016-11-04T10:36:17.982Z,5020
2016-11-04T10:37:17.894Z,4964
2016-11-04T10:38:17.677Z,4952
2016-11-04T10:39:17.320Z,4708
2016-11-04T10:40:18.121Z,4732
2016-11-04T10:41:17.984Z,5056
2016-11-04T10:42:17.379Z,4856
2016-11-04T10:43:18.040Z,4876
2016-11-04T10:44:17.399Z,4900
2016-11-04T10:45:17.762Z,4892
2016-11-04T10:46:17.744Z,4856
2016-11-04T10:47:17.829Z,4796
2016-11-04T10:48:17.841Z,4808
2016-11-04T10:49:18.147Z,4764
2016-11-04T10:50:17.829Z,4684
2016-11-04T10:51:18.157Z,4696
2016-11-04T10:52:18.167Z,4592
2016-11-04T10:53:18.274Z,4528
2016-11-04T10:54:18.213Z,4496
2016-11-04T10:55:17.928Z,4504
2016-11-04T10:56:18.246Z,4580
2016-11-04T10:57:18.277Z,4632
2016-11-04T10:58:18.295Z,4752
2016-11-04T10:59:18.300Z,4836
2016-11-04T11:00:18.330Z,4712
2016-11-04T11:01:18.020Z,4876
2016-11-04T11:02:18.044Z,4848
2016-11-04T11:03:18.492Z,4844
2016-11-04T11:04:18.119Z,4684
2016-11-04T11:05:18.459Z,4544
2016-11-04T11:06:18.434Z,4452
2016-11-04T11:07:18.511Z,4480
2016-11-04T11:08:18.160Z,4400
2016-11-04T11:09:18.170Z,4356
2016-11-04T11:10:18.530Z,4280
2016-11-04T11:11:18.231Z,4296
2016-11-04T11:12:18.544Z,4300
2016-11-04T11:13:18.401Z,4224
2016-11-04T11:14:18.262Z,4304
2016-11-04T11:15:18.719Z,4272
2016-11-04T11:16:18.019Z,4292
2016-11-04T11:17:18.343Z,4284
2016-11-04T11:18:18.659Z,4300
2016-11-04T11:19:18.756Z,4308
2016-11-04T11:20:18.764Z,4284
2016-11-04T11:21:18.719Z,4280
2016-11-04T11:22:18.433Z,4260
2016-11-04T11:23:18.771Z,4432
2016-11-04T11:24:18.769Z,4468
2016-11-04T11:25:18.517Z,4568
2016-11-04T11:26:18.954Z,4632
2016-11-04T11:27:18.997Z,4664
2016-11-04T11:28:18.953Z,4588
2016-11-04T11:29:18.997Z,4504
2016-11-04T11:30:19.205Z,4460
2016-11-04T11:31:18.578Z,4460
2016-11-04T11:32:18.619Z,4476
2016-11-04T11:33:19.037Z,4440
2016-11-04T11:34:18.631Z,4460
2016-11-04T11:35:18.648Z,4396
2016-11-04T11:36:18.685Z,4432
2016-11-04T11:37:18.692Z,4528
2016-11-04T11:38:19.027Z,4568
2016-11-04T11:39:19.042Z,4640
2016-11-04T11:40:19.065Z,4744
2016-11-04T11:41:18.491Z,4804
2016-11-04T11:42:18.492Z,4840
2016-11-04T11:43:19.171Z,4904
2016-11-04T11:44:18.837Z,4916
2016-11-04T11:45:18.866Z,4872
2016-11-04T11:46:19.181Z,4884
2016-11-04T11:47:19.218Z,4924
2016-11-04T11:48:18.687Z,4948
2016-11-04T11:49:19.242Z,4992
2016-11-04T11:50:19.264Z,5032
2016-11-04T11:51:19.281Z,4720
2016-11-04T11:52:19.290Z,4792
2016-11-04T11:53:19.761Z,5028
2016-11-04T11:54:19.426Z,5496
2016-11-04T11:55:19.418Z,5824
2016-11-04T11:56:19.080Z,6000
2016-11-04T11:57:19.120Z,6148
2016-11-04T11:58:19.141Z,6192
2016-11-04T11:59:19.463Z,6144
2016-11-04T12:00:19.480Z,5940
2016-11-04T12:01:19.540Z,5708
2016-11-04T12:02:19.478Z,5252
2016-11-04T12:03:19.502Z,4872
2016-11-04T12:04:19.514Z,4792
2016-11-04T12:05:19.531Z,4772
2016-11-04T12:06:19.549Z,4952
2016-11-04T12:07:19.280Z,5264
2016-11-04T12:08:19.671Z,5876
2016-11-04T12:09:19.631Z,6520
2016-11-04T12:10:19.024Z,6976
2016-11-04T12:11:19.707Z,6876
2016-11-04T12:12:19.738Z,7000
2016-11-04T12:13:19.691Z,7224
2016-11-04T12:14:19.693Z,7216
2016-11-04T12:15:18.793Z,7036
2016-11-04T12:16:19.754Z,6968
2016-11-04T12:17:19.774Z,6896
2016-11-04T12:18:20.173Z,6760
2016-11-04T12:19:19.847Z,6672
2016-11-04T12:20:20.214Z,6768
2016-11-04T12:21:19.780Z,6992
2016-11-04T12:22:19.948Z,7056
2016-11-04T12:23:19.714Z,6868
2016-11-04T12:24:20.318Z,6636
2016-11-04T12:25:19.861Z,6360
2016-11-04T12:26:20.739Z,6068
2016-11-04T12:27:20.100Z,5848
2016-11-04T12:28:20.259Z,5588
2016-11-04T12:29:19.831Z,5304
2016-11-04T12:30:20.271Z,5080
2016-11-04T12:31:19.471Z,5024
2016-11-04T12:32:19.778Z,5064
2016-11-04T12:33:20.127Z,5152
2016-11-04T12:34:20.188Z,5216
2016-11-04T12:35:20.324Z,5204
2016-11-04T12:36:20.210Z,5080
2016-11-04T12:37:19.788Z,4904
2016-11-04T12:38:20.191Z,4748
2016-11-04T12:39:20.374Z,4544
2016-11-04T12:40:20.250Z,4384
2016-11-04T12:41:20.353Z,4276
2016-11-04T12:42:20.258Z,4152
2016-11-04T12:43:20.373Z,4036
2016-11-04T12:44:19.669Z,3972
2016-11-04T12:45:20.030Z,3928
2016-11-04T12:46:20.033Z,3852
2016-11-04T12:47:20.441Z,3692
2016-11-04T12:48:20.390Z,3540
2016-11-04T12:49:20.288Z,3408
2016-11-04T12:50:20.111Z,3320
2016-11-04T12:51:20.853Z,3244
2016-11-04T12:52:20.468Z,3188
2016-11-04T12:53:20.500Z,3168
2016-11-04T12:54:20.470Z,3224
2016-11-04T12:55:20.552Z,3352
2016-11-04T12:56:20.222Z,3508
2016-11-04T12:57:20.231Z,3600
2016-11-04T12:58:20.571Z,3584
2016-11-04T12:59:20.691Z,3488
2016-11-04T13:00:20.302Z,3424
2016-11-04T13:01:20.354Z,3492
2016-11-04T13:02:20.351Z,3620
2016-11-04T13:03:20.702Z,3860
2016-11-04T13:04:20.371Z,3992
2016-11-04T13:05:20.400Z,3892
2016-11-04T13:06:20.430Z,3676
2016-11-04T13:07:20.736Z,3428
2016-11-04T13:08:20.788Z,3264
2016-11-04T13:09:20.883Z,3296
2016-11-04T13:10:20.484Z,3504
2016-11-04T13:11:20.822Z,3752
2016-11-04T13:12:20.950Z,3872
2016-11-04T13:13:20.892Z,3764
2016-11-04T13:14:20.617Z,3528
2016-11-04T13:15:20.904Z,3308
2016-11-04T13:16:20.966Z,3188
2016-11-04T13:17:20.945Z,3148
2016-11-04T13:18:20.952Z,3084
2016-11-04T13:19:20.984Z,2952
2016-11-04T13:20:20.684Z,2848
2016-11-04T13:21:20.690Z,2880
2016-11-04T13:22:21.169Z,3044
2016-11-04T13:23:20.762Z,3264
2016-11-04T13:24:20.569Z,3504
2016-11-04T13:25:21.086Z,3600
2016-11-04T13:26:21.180Z,3556
2016-11-04T13:27:20.832Z,3516
2016-11-04T13:28:21.172Z,3472
2016-11-04T13:29:21.162Z,3464
2016-11-04T13:30:21.205Z,3376
2016-11-04T13:31:21.222Z,3220
2016-11-04T13:32:20.922Z,3168
2016-11-04T13:33:21.248Z,3316
2016-11-04T13:34:21.032Z,3472
2016-11-04T13:35:21.411Z,3424
2016-11-04T13:36:21.352Z,3156
2016-11-04T13:37:21.394Z,2800
2016-11-04T13:38:21.434Z,2612
2016-11-04T13:39:21.122Z,2644
2016-11-04T13:40:21.422Z,2756
2016-11-04T13:41:20.788Z,2820
2016-11-04T13:42:21.451Z,2688
2016-11-04T13:43:21.139Z,2460
2016-11-04T13:44:21.446Z,2300
2016-11-04T13:45:21.497Z,2264
2016-11-04T13:46:21.203Z,2348
2016-11-04T13:47:20.918Z,2408
2016-11-04T13:48:21.664Z,2448
2016-11-04T13:49:21.593Z,2500
2016-11-04T13:50:21.577Z,2504
2016-11-04T13:51:21.756Z,2308
2016-11-04T13:52:21.607Z,2080
2016-11-04T13:53:21.360Z,1872
2016-11-04T13:54:21.666Z,1720
2016-11-04T13:55:21.728Z,1748
2016-11-04T13:56:21.699Z,1880
2016-11-04T13:57:21.412Z,1892
2016-11-04T13:58:21.734Z,1828